Surface/Precipitation History
11/26/2014 06:10  to  11/27/2014 06:10
Change End Date:
Date/Time
(MST)
Sf
Temp Chem Water Layer Surface Precipitation
Sf Sub Frz Factor Pct Depth IcePct Cond Salin Type Intens Accum Rate
11/27/2014 05:41 Ice Warning 30.9F 31F 32F 5 0% - 98% 0 mhos 43 None None - -
11/27/2014 05:31 Ice Warning 31.1F 31F 32F 5 0% - 98% 0 mhos 43 None None - -
11/27/2014 05:21 Ice Warning 30.9F 31F 32F 5 0% - 98% 0 mhos 44 None None - -
11/27/2014 05:11 Ice Warning 30.9F 31F 32F 5 0% - 98% 0 mhos 44 None None - -
11/27/2014 05:10 Ice Warning 30.9F 31F 32F 5 0% - 98% 0 mhos 43 None None - -
11/27/2014 05:01 Ice Warning 30.7F 31F 32F 5 0% - 98% 0 mhos 45 None None - -
11/27/2014 04:51 Ice Warning 30.6F 31F 32F 5 0% - 99% 0 mhos 42 None None - -
11/27/2014 04:41 Ice Warning 30.4F 31F 32F 5 0% - 99% 0 mhos 38 None None - -
11/27/2014 04:40 Ice Warning 30.2F 31F 32F 5 0% - 99% 0 mhos 37 None None - -
11/27/2014 04:30 Ice Warning 30.2F 31F 32F 5 0% - 99% 0 mhos 36 None None - -
11/27/2014 04:20 Ice Warning 30.0F 31F 32F 5 0% - 99% 0 mhos 37 None None - -
11/27/2014 04:10 Ice Warning 30.2F 31F 32F 5 0% - 99% 0 mhos 39 None None - -
11/27/2014 04:10 Ice Warning 30.2F 31F 32F 5 0% - 99% 0 mhos 39 None None - -
11/27/2014 04:00 Ice Warning 30.4F 31F 32F 5 0% - 99% 0 mhos 41 None None - -
11/27/2014 03:50 Ice Warning 30.6F 31F 32F 5 0% - 99% 0 mhos 45 None None - -
Date/Time
(MST)
Sf
Temp Chem Water Layer Surface Precipitation
Sf Sub Frz Factor Pct Depth IcePct Cond Salin Type Intens Accum Rate
11/27/2014 03:40 Ice Warning 30.4F 31F 32F 10 0% - 99% 0 mhos 42 None None - -
11/27/2014 03:30 Ice Warning 30.0F 31F 32F 10 0% - 99% 0 mhos 38 None None - -
11/27/2014 03:20 Ice Warning 29.8F 31F 32F 10 0% - 99% 0 mhos 35 None None - -
11/27/2014 03:10 Ice Warning 29.3F 31F 32F 10 0% - 99% 0 mhos 32 None None - -
11/27/2014 03:10 Ice Warning 29.3F 31F 32F 10 0% - 99% 0 mhos 32 None None - -
11/27/2014 03:00 Ice Warning 29.1F 31F 32F 10 0% - 99% 0 mhos 30 None None - -
11/27/2014 02:50 Ice Warning 28.4F 31F 32F 10 0% - 100% 0 mhos 28 None None - -
11/27/2014 02:40 Ice Warning 28.4F 31F 32F 10 0% - 100% 0 mhos 28 None None - -
11/27/2014 02:40 Ice Warning 28.4F 31F 32F 10 0% - 100% 0 mhos 28 None None - -
11/27/2014 02:30 Ice Warning 28.6F 31F 32F 10 0% - 100% 0 mhos 29 None None - -
11/27/2014 02:20 Ice Warning 28.9F 31F 32F 10 0% - 100% 0 mhos 30 None None - -
11/27/2014 02:11 Ice Warning 28.8F 31F 32F 10 0% - 100% 0 mhos 30 None None - -
11/27/2014 02:10 Ice Warning 28.8F 31F 32F 10 0% - 100% 0 mhos 29 None None - -
11/27/2014 02:00 Ice Warning 29.1F 31F 32F 10 0% - 99% 0 mhos 31 None None - -
11/27/2014 01:50 Ice Warning 29.3F 31F 32F 10 0% - 99% 0 mhos 33 None None - -
Date/Time
(MST)
Sf
Temp Chem Water Layer Surface Precipitation
Sf Sub Frz Factor Pct Depth IcePct Cond Salin Type Intens Accum Rate
11/27/2014 01:41 Ice Warning 29.5F 31F 32F 15 0% - 99% 0 mhos 34 None None - -
11/27/2014 01:40 Ice Warning 29.5F 31F 32F 15 0% - 99% 0 mhos 34 None None - -
11/27/2014 01:30 Ice Warning 29.5F 31F 32F 15 0% - 99% 0 mhos 34 None None - -
11/27/2014 01:20 Ice Warning 29.3F 31F 32F 15 0% - 99% 0 mhos 33 None None - -
11/27/2014 01:10 Ice Warning 29.5F 31F 32F 15 0% - 99% 0 mhos 35 None None - -
11/27/2014 01:10 Ice Warning 29.5F 31F 32F 15 0% - 99% 0 mhos 35 None None - -
11/27/2014 01:00 Ice Warning 29.8F 31F 32F 20 0% - 99% 0 mhos 37 None None - -
11/27/2014 00:49 Ice Warning 30.2F 31F 32F 20 0% - 99% 0 mhos 40 None None - -
11/27/2014 00:44 Ice Warning 30.2F 31F 32F 20 0% - 99% 0 mhos 41 None None - -
11/27/2014 00:39 Ice Warning 30.2F 31F 32F 20 0% - 99% 0 mhos 43 None None - -
11/27/2014 00:29 Ice Warning 30.2F 31F 32F 20 0% - 99% 0 mhos 41 None None - -
11/27/2014 00:19 Ice Warning 30.0F 31F 32F 20 0% - 99% 0 mhos 37 None None - -
11/27/2014 00:15 Ice Warning 29.8F 31F 32F 20 0% - 99% 0 mhos 36 None None - -
11/27/2014 00:09 Ice Warning 29.8F 31F 32F 20 0% - 99% 0 mhos 35 None None - -
11/26/2014 23:59 Ice Warning 29.8F 31F 32F 20 0% - 99% 0 mhos 35 None None - -
Date/Time
(MST)
Sf
Temp Chem Water Layer Surface Precipitation
Sf Sub Frz Factor Pct Depth IcePct Cond Salin Type Intens Accum Rate
11/26/2014 23:49 Ice Warning 29.8F 31F 32F 20 0% - 99% 0 mhos 36 None None - -
11/26/2014 23:41 Ice Warning 30.0F 31F 32F 20 0% - 99% 0 mhos 36 None None - -
11/26/2014 23:39 Ice Warning 30.0F 31F 32F 20 0% - 99% 0 mhos 36 None None - -
11/26/2014 23:29 Ice Warning 29.8F 31F 32F 20 0% - 99% 0 mhos 34 None None - -
11/26/2014 23:19 Ice Warning 29.5F 31F 32F 15 0% - 99% 0 mhos 32 None None - -
11/26/2014 23:17 Ice Warning 29.5F 31F 32F 15 0% - 99% 0 mhos 32 None None - -
11/26/2014 23:09 Ice Warning 29.5F 31F 32F 15 0% - 99% 0 mhos 31 None None - -
11/26/2014 22:59 Ice Warning 29.1F 31F 32F 15 0% - 99% 0 mhos 31 None None - -
11/26/2014 22:49 Ice Warning 29.3F 31F 32F 15 0% - 99% 0 mhos 31 None None - -
11/26/2014 22:40 Ice Warning 29.3F 31F 32F 15 0% - 99% 0 mhos 31 None None - -
11/26/2014 22:39 Ice Warning 29.3F 31F 32F 15 0% - 99% 0 mhos 31 None None - -
11/26/2014 22:29 Ice Warning 29.7F 31F 32F 20 0% - 99% 0 mhos 32 None None - -
11/26/2014 22:19 Ice Warning 29.5F 31F 32F 20 0% - 99% 0 mhos 32 None None - -
11/26/2014 22:10 Ice Warning 29.5F 31F 32F 15 0% - 99% 0 mhos 32 None None - -
11/26/2014 22:09 Ice Warning 29.5F 31F 32F 20 0% - 99% 0 mhos 32 None None - -
Date/Time
(MST)
Sf
Temp Chem Water Layer Surface Precipitation
Sf Sub Frz Factor Pct Depth IcePct Cond Salin Type Intens Accum Rate
11/26/2014 21:59 Ice Warning 29.7F 31F 32F 20 0% - 99% 0 mhos 32 None None - -
11/26/2014 21:49 Ice Warning 29.7F 31F 32F 20 0% - 99% 0 mhos 33 None None - -
11/26/2014 21:41 Ice Warning 29.8F 31F 32F 20 0% - 99% 0 mhos 34 None None - -
11/26/2014 21:38 Ice Warning 29.8F 31F 32F 15 0% - 99% 0 mhos 33 None None - -
11/26/2014 21:28 Ice Warning 30.0F 31F 32F 15 0% - 99% 0 mhos 34 None None - -
11/26/2014 21:18 Ice Warning 30.0F 31F 32F 15 0% - 99% 0 mhos 35 None None - -
11/26/2014 21:10 Ice Warning 30.2F 31F 32F 15 0% - 99% 0 mhos 35 None None - -
11/26/2014 21:08 Ice Warning 30.0F 31F 32F 15 0% - 99% 0 mhos 35 None None - -
11/26/2014 20:58 Ice Warning 30.0F 31F 32F 15 0% - 99% 0 mhos 34 None None - -
11/26/2014 20:48 Ice Warning 29.7F 31F 32F 15 0% - 99% 0 mhos 31 None None - -
11/26/2014 20:41 Ice Warning 29.7F 31F 32F 15 0% - 99% 0 mhos 30 None None - -
11/26/2014 20:38 Ice Warning 29.5F 31F 32F 15 0% - 99% 0 mhos 30 None None - -
11/26/2014 20:28 Ice Warning 29.5F 31F 32F 15 0% - 99% 0 mhos 30 None None - -
11/26/2014 20:18 Ice Warning 29.1F 31F 32F 15 0% - 100% 0 mhos 27 None None - -
11/26/2014 20:10 Ice Warning 29.1F 31F 32F 15 0% - 100% 0 mhos 27 None None - -
Date/Time
(MST)
Sf
Temp Chem Water Layer Surface Precipitation
Sf Sub Frz Factor Pct Depth IcePct Cond Salin Type Intens Accum Rate
11/26/2014 20:08 Ice Warning 29.1F 31F 32F 15 0% - 100% 0 mhos 27 None None - -
11/26/2014 19:58 Ice Warning 29.1F 31F 32F 15 0% - 100% 0 mhos 27 None None - -
11/26/2014 19:48 Ice Warning 29.1F 31F 32F 15 0% - 100% 0 mhos 28 None None - -
11/26/2014 19:40 Ice Warning 29.3F 31F 32F 15 0% - 99% 0 mhos 28 None None - -
11/26/2014 19:38 Ice Warning 29.5F 31F 32F 15 0% - 99% 0 mhos 29 None None - -
11/26/2014 19:28 Ice Warning 29.7F 31F 32F 15 0% - 99% 0 mhos 29 None None - -
11/26/2014 19:18 Ice Warning 29.8F 31F 32F 15 0% - 99% 0 mhos 31 None None - -
11/26/2014 19:10 Ice Warning 30.4F 31F 32F 20 0% - 99% 0 mhos 34 None None - -
11/26/2014 19:08 Ice Warning 30.4F 31F 32F 20 0% - 99% 0 mhos 35 None None - -
11/26/2014 18:58 Ice Warning 30.9F 31F 32F 25 0% - 98% 0 mhos 45 None None - -
11/26/2014 18:48 Ice Warning 31.3F 31F 32F 30 0% - 97% 0 mhos 53 None None - -
11/26/2014 18:41 Ice Warning 31.3F 31F 32F 35 0% - 97% 1 mhos 56 None None - -
11/26/2014 18:38 Ice Warning 31.5F 31F 32F 35 0% - 96% 1 mhos 57 None None - -
11/26/2014 18:27 Ice Warning 31.5F 31F 32F 50 0% - 95% 1 mhos 61 None None - -
11/26/2014 18:17 Ice Warning 31.3F 31F 32F 55 0% - 96% 1 mhos 66 None None - -
Date/Time
(MST)
Sf
Temp Chem Water Layer Surface Precipitation
Sf Sub Frz Factor Pct Depth IcePct Cond Salin Type Intens Accum Rate
11/26/2014 18:11 Ice Warning 31.1F 31F 32F 40 0% - 97% 1 mhos 65 None None - -
11/26/2014 18:07 Ice Warning 31.3F 31F 32F 40 0% - 97% 1 mhos 64 None None - -
11/26/2014 17:57 Ice Warning 31.5F 31F 32F 45 0% - 94% 1 mhos 64 None None - -
11/26/2014 17:47 Chemically Wet 31.8F 31F 32F 45 0% - 84% 1 mhos 64 None None - -
11/26/2014 17:41 Wet 32.2F 31F 32F 50 0% 0.00 in 0% 1 mhos 63 None None - -
11/26/2014 17:37 Wet 32.4F 31F 32F 50 0% 0.00 in 0% 1 mhos 64 None None - -
11/26/2014 17:27 Wet 32.5F 31F 32F 55 0% 0.00 in 0% 1 mhos 65 None None - -
11/26/2014 17:17 Wet 32.7F 31F 32F 55 0% 0.00 in 0% 1 mhos 66 None None - -
11/26/2014 17:07 Wet 33.1F 31F 32F 60 0% 0.00 in 0% 1 mhos 67 None None - -
11/26/2014 16:57 Wet 33.4F 31F 32F 65 0% 0.00 in 0% 1 mhos 69 None None - -
11/26/2014 16:47 Wet 33.8F 31F 32F 60 0% 0.00 in 0% 1 mhos 70 None None - -
11/26/2014 16:40 Wet 34.0F 31F 32F 65 0% 0.00 in 0% 1 mhos 70 None None - -
11/26/2014 16:37 Wet 34.2F 31F 32F 65 0% 0.00 in 0% 1 mhos 70 None None - -
11/26/2014 16:27 Wet 34.7F 31F 32F 65 0% 0.00 in 0% 1 mhos 71 None None - -
11/26/2014 16:17 Wet 35.2F 31F 32F 75 0% 0.00 in 0% 1 mhos 73 None None - -
Date/Time
(MST)
Sf
Temp Chem Water Layer Surface Precipitation
Sf Sub Frz Factor Pct Depth IcePct Cond Salin Type Intens Accum Rate
11/26/2014 16:11 Wet 36.0F 31F 32F 90 0% 0.00 in 0% 1 mhos 75 None None - -
11/26/2014 16:07 Wet 36.1F 31F 32F 95 0% 0.00 in 0% 1 mhos 76 None None - -
11/26/2014 15:57 Wet 36.9F 31F 32F 95 0% 0.10 in 0% 1 mhos 81 None None - -
11/26/2014 15:47 Wet 38.7F 31F 32F 95 0% 0.10 in 0% 1 mhos 87 None None - -
11/26/2014 15:41 Wet 39.7F 31F 32F 95 0% 0.10 in 0% 1 mhos 88 None None - -
11/26/2014 15:37 Wet 41.2F 31F 32F 95 0% 0.10 in 0% 1 mhos 89 None None - -
11/26/2014 15:26 Wet 39.2F 31F 32F 95 0% 0.10 in 0% 1 mhos 90 None None - -
11/26/2014 15:16 Wet 38.7F 31F 32F 95 0% 0.10 in 0% 1 mhos 91 None None - -
11/26/2014 15:07 Wet 39.6F 31F 32F 95 0% 0.10 in 0% 1 mhos 94 None None - -
11/26/2014 15:06 Wet 39.4F 31F 32F 95 0% 0.10 in 0% 1 mhos 92 None None - -
11/26/2014 14:56 Wet 38.7F 31F 32F 95 0% 0.10 in 0% 1 mhos 93 None None - -
11/26/2014 14:46 Wet 38.7F 31F 32F 95 0% 0.10 in 0% 1 mhos 96 None None - -
11/26/2014 14:36 Wet 38.3F 31F 32F 95 0% 0.10 in 0% 1 mhos 99 None None - -
11/26/2014 14:36 Wet 38.3F 31F 32F 95 0% 0.10 in 0% 1 mhos 99 None None - -
11/26/2014 14:26 Wet 38.7F 31F 32F 95 0% 0.10 in 0% 1 mhos 101 None None - -
Date/Time
(MST)
Sf
Temp Chem Water Layer Surface Precipitation
Sf Sub Frz Factor Pct Depth IcePct Cond Salin Type Intens Accum Rate
11/26/2014 14:16 Wet 39.6F 31F 32F 95 0% 0.10 in 0% 1 mhos 103 None None - -
11/26/2014 14:11 Wet 40.1F 31F 32F 95 0% 0.10 in 0% 1 mhos 105 None None - -
11/26/2014 14:06 Wet 40.3F 31F 32F 95 0% 0.10 in 0% 1 mhos 107 None None - -
11/26/2014 13:56 Wet 40.1F 31F 32F 95 0% 0.10 in 0% 1 mhos 106 None None - -
11/26/2014 13:46 Wet 40.1F 31F 32F 95 0% 0.00 in 0% 1 mhos 107 None None - -
11/26/2014 13:41 Wet 40.5F 31F 32F 95 0% 0.10 in 0% 1 mhos 116 None None - -
11/26/2014 13:36 Wet 40.5F 31F 32F 95 0% 0.10 in 0% 1 mhos 117 None None - -
11/26/2014 13:26 Wet 39.9F 31F 32F 95 0% 0.10 in 0% 1 mhos 118 None None - -
11/26/2014 13:16 Wet 39.9F 31F 32F 95 0% 0.10 in 0% 1 mhos 112 None None - -
11/26/2014 13:10 Wet 39.9F 31F 32F 95 0% 0.10 in 0% 1 mhos 112 None None - -
11/26/2014 13:06 Wet 38.8F 31F 32F 95 0% 0.10 in 0% 1 mhos 113 None None - -
11/26/2014 12:56 Wet 38.5F 31F 32F 95 0% 0.10 in 0% 1 mhos 116 None None - -
11/26/2014 12:46 Wet 38.7F 31F 32F 95 0% 0.10 in 0% 1 mhos 119 None None - -
11/26/2014 12:40 Wet 38.7F 31F 32F 95 0% 0.00 in 0% 1 mhos 122 None None - -
11/26/2014 12:36 Wet 38.7F 31F 32F 95 0% 0.10 in 0% 1 mhos 128 None None - -
Date/Time
(MST)
Sf
Temp Chem Water Layer Surface Precipitation
Sf Sub Frz Factor Pct Depth IcePct Cond Salin Type Intens Accum Rate
11/26/2014 12:26 Wet 38.7F 31F 32F 95 0% 0.10 in 0% 2 mhos 139 None None - -
11/26/2014 12:16 Wet 38.7F 31F 32F 95 1% 0.10 in 0% 2 mhos 154 None None - -
11/26/2014 12:06 Wet 38.1F 31F 32F 95 1% 0.10 in 0% 2 mhos 168 None None - -
11/26/2014 11:56 Wet 37.8F 31F 32F 95 1% 0.10 in 0% 2 mhos 166 None None - -
11/26/2014 11:46 Wet 37.6F 31F 32F 95 1% 0.00 in 0% 2 mhos 158 None None - -
11/26/2014 11:42 Wet 37.4F 31F 32F 95 0% 0.00 in 0% 2 mhos 149 None None - -
11/26/2014 11:36 Wet 37.4F 31F 32F 95 0% 0.00 in 0% 2 mhos 148 None None - -
11/26/2014 11:26 Wet 37.0F 31F 32F 95 0% 0.00 in 0% 2 mhos 145 None None - -
11/26/2014 11:15 Wet 37.2F 31F 32F 95 1% 0.00 in 0% 2 mhos 156 Yes - - -
11/26/2014 11:05 Wet 37.2F 31F 32F 95 1% 0.00 in 0% 2 mhos 164 None None - -
11/26/2014 10:55 Wet 37.0F 31F 32F 95 1% 0.00 in 0% 2 mhos 173 None None - -
11/26/2014 10:45 Wet 36.9F 31F 32F 95 1% 0.00 in 0% 2 mhos 184 None None - -
11/26/2014 10:35 Wet 36.5F 31F 32F 95 1% 0.00 in 0% 2 mhos 189 None None - -
11/26/2014 10:25 Wet 36.5F 31F 32F 95 1% 0.00 in 0% 2 mhos 202 None None - -
11/26/2014 10:15 Wet 35.6F 31F 32F 95 1% 0.00 in 0% 2 mhos 216 None None - -
Date/Time
(MST)
Sf
Temp Chem Water Layer Surface Precipitation
Sf Sub Frz Factor Pct Depth IcePct Cond Salin Type Intens Accum Rate
11/26/2014 10:05 Wet 35.1F 31F 32F 95 1% 0.00 in 0% 2 mhos 224 None None - -
11/26/2014 09:55 Wet 34.7F 31F 32F 95 1% 0.00 in 0% 2 mhos 237 None None - -
11/26/2014 09:45 Wet 34.3F 31F 32F 95 1% 0.00 in 0% 3 mhos 251 Yes - - -
11/26/2014 09:35 Wet 34.0F 31F 32F 95 1% 0.00 in 0% 3 mhos 270 None None - -
11/26/2014 09:25 Wet 33.4F 31F 32F 95 1% 0.00 in 0% 3 mhos 309 None None - -
11/26/2014 09:15 Wet 32.7F 31F 32F 95 1% 0.00 in 0% 3 mhos 330 None None - -
11/26/2014 09:05 Chemically Wet 32.0F 31F 32F 95 1% 0.00 in 0% 4 mhos 354 None None - -
11/26/2014 08:55 Chemically Wet 31.8F 31F 32F 95 1% 0.10 in 0% 4 mhos 394 None None - -
11/26/2014 08:45 Chemically Wet 31.6F 31F 32F 95 1% 0.00 in 0% 4 mhos 443 None None - -
11/26/2014 08:35 Chemically Wet 31.6F 31F 32F 95 2% 0.00 in 0% 5 mhos 477 None None - -
11/26/2014 08:25 Chemically Wet 31.6F 31F 32F 95 2% 0.00 in 0% 5 mhos 514 None None - -
11/26/2014 08:15 Chemically Wet 31.5F 31F 31F 95 2% - 52% 5 mhos 557 None None - -
11/26/2014 08:05 Chemically Wet 31.5F 31F 31F 95 2% - 61% 6 mhos 596 Yes - - -
11/26/2014 07:55 Chemically Wet 31.5F 31F 31F 95 2% - 56% 6 mhos 659 Yes - - -
11/26/2014 07:45 Chemically Wet 31.5F 31F 31F 95 2% - 55% 7 mhos 687 Yes - - -
Date/Time
(MST)
Sf
Temp Chem Water Layer Surface Precipitation
Sf Sub Frz Factor Pct Depth IcePct Cond Salin Type Intens Accum Rate
11/26/2014 07:35 Chemically Wet 31.5F 31F 31F 95 2% - 52% 7 mhos 722 None None - -
11/26/2014 07:25 Chemically Wet 31.3F 31F 31F 95 3% - 59% 7 mhos 773 Yes - - -
11/26/2014 07:15 Chemically Wet 31.3F 31F 31F 95 3% - 56% 8 mhos 820 Yes - - -
11/26/2014 07:05 Chemically Wet 31.1F 31F 31F 95 3% - 59% 9 mhos 901 Yes - - -
11/26/2014 06:55 Chemically Wet 30.9F 31F 31F 95 3% - 61% 9 mhos 988 Yes - - -
11/26/2014 06:45 Chemically Wet 30.7F 31F 31F 95 3% - 65% 9 mhos 992 Yes - - -
11/26/2014 06:34 Chemically Wet 30.6F 31F 31F 95 4% - 65% 10 mhos 1096 Yes - - -
11/26/2014 06:24 Chemically Wet 30.6F 31F 31F 95 4% - 63% 11 mhos 1179 Yes - - -
11/26/2014 06:14 Chemically Wet 30.4F 31F 31F 95 4% - 66% 11 mhos 1187 None None - -
Change End Date:
Copyright © 1998-2005 Surface Systems, Inc.
All Rights Reserved
Send comments about the data to:
SCAN Web ® is a registered trademark of Surface Systems, Inc.
SCAN Web Version 5.6